Time;durP1;ratioP1;P1;durP2;ratioP2;P2;SDS_P1;SDS_P2;PMS_P1;PMS_P2;Temp;Humidity;BMP_temperature;BMP_pressure;BME280_temperature;BME280_humidity;BME280_pressure;Samples;Min_cycle;Max_cycle;Signal;HPM_P1;HPM_P2
2020/12/14 00:00:36;;;;;;;0.77;0.68;;;4.90;97.00;;;;;;4098853;28;20063;-87
2020/12/14 00:02:39;;;;;;;1.85;0.82;;;4.90;96.00;;;;;;4098888;28;20063;-86
2020/12/14 00:04:40;;;;;;;0.95;0.82;;;5.00;95.80;;;;;;4098541;28;20057;-87
2020/12/14 00:06:41;;;;;;;2.88;1.08;;;4.90;96.40;;;;;;4098596;28;20055;-86
2020/12/14 00:08:43;;;;;;;2.28;0.93;;;4.90;96.60;;;;;;4089110;29;20096;-86
2020/12/14 00:10:44;;;;;;;1.55;1.40;;;4.80;96.90;;;;;;4116879;28;20051;-85
2020/12/14 00:12:45;;;;;;;0.40;0.40;;;4.80;96.60;;;;;;4115065;28;20065;-86
2020/12/14 00:14:46;;;;;;;0.82;0.52;;;4.80;96.00;;;;;;4098396;28;20051;-86
2020/12/14 00:16:48;;;;;;;2.78;1.48;;;4.80;96.60;;;;;;4100212;28;20429;-87
2020/12/14 00:18:49;;;;;;;0.95;0.88;;;4.80;96.40;;;;;;4099773;28;20137;-86
2020/12/14 00:20:50;;;;;;;3.00;2.63;;;4.80;96.70;;;;;;4119835;28;20441;-86
2020/12/14 00:22:52;;;;;;;2.38;1.63;;;4.70;97.00;;;;;;4104101;28;20054;-86
2020/12/14 00:24:53;;;;;;;1.48;0.98;;;4.70;96.70;;;;;;4102474;28;20051;-86
2020/12/14 00:26:55;;;;;;;1.98;1.30;;;4.70;96.20;;;;;;4100962;28;20043;-87
2020/12/14 00:28:57;;;;;;;0.75;0.70;;;4.70;96.20;;;;;;4101521;28;20051;-86
2020/12/14 00:30:59;;;;;;;1.80;1.70;;;4.60;97.00;;;;;;4117885;28;20511;-85
2020/12/14 00:33:00;;;;;;;0.88;0.88;;;4.60;96.50;;;;;;4119767;28;20074;-86
2020/12/14 00:35:01;;;;;;;0.47;0.47;;;4.60;96.70;;;;;;4103472;28;20133;-86
2020/12/14 00:37:04;;;;;;;0.82;0.55;;;4.60;96.70;;;;;;4101562;28;20063;-86
2020/12/14 00:39:05;;;;;;;1.48;0.88;;;4.60;96.70;;;;;;4088077;29;20500;-86
2020/12/14 00:41:09;;;;;;;1.40;1.05;;;4.50;97.40;;;;;;4117780;28;20462;-86
2020/12/14 00:43:10;;;;;;;3.38;1.95;;;4.50;97.30;;;;;;4101898;28;20086;-86
2020/12/14 00:45:11;;;;;;;1.33;1.33;;;4.50;96.80;;;;;;4102008;28;20051;-87
2020/12/14 00:47:15;;;;;;;1.38;1.27;;;4.50;96.40;;;;;;4101019;28;20534;-85
2020/12/14 00:49:16;;;;;;;0.95;0.77;;;4.50;96.40;;;;;;4085552;29;20059;-86
2020/12/14 00:51:22;;;;;;;0.60;0.50;;;4.50;96.80;;;;;;4103900;28;20397;-86
2020/12/14 00:53:23;;;;;;;0.70;0.70;;;4.50;96.80;;;;;;4101161;28;20047;-86
2020/12/14 00:55:25;;;;;;;1.27;0.80;;;4.50;97.20;;;;;;4101256;28;20134;-86
2020/12/14 00:57:26;;;;;;;0.40;0.40;;;4.40;97.00;;;;;;4101486;28;20479;-86
2020/12/14 00:59:27;;;;;;;0.85;0.82;;;4.40;97.80;;;;;;4107973;28;20057;-85
2020/12/14 01:01:29;;;;;;;0.45;0.40;;;4.40;97.60;;;;;;4101466;28;20055;-86
2020/12/14 01:03:30;;;;;;;0.73;0.52;;;4.30;97.90;;;;;;4085516;28;20067;-85
2020/12/14 01:05:32;;;;;;;2.25;0.52;;;4.30;98.00;;;;;;4089389;28;20058;-86
2020/12/14 01:07:33;;;;;;;0.57;0.57;;;4.30;97.80;;;;;;4101908;28;20066;-85
2020/12/14 01:09:34;;;;;;;0.90;0.82;;;4.40;96.90;;;;;;4086725;28;20078;-87
2020/12/14 01:11:35;;;;;;;1.08;0.60;;;4.30;97.80;;;;;;4100613;28;20063;-86
2020/12/14 01:13:37;;;;;;;1.27;0.95;;;4.30;97.50;;;;;;4086283;28;20059;-85
2020/12/14 01:15:38;;;;;;;1.08;0.85;;;4.30;97.50;;;;;;4090497;28;20062;-86
2020/12/14 01:17:39;;;;;;;1.55;1.45;;;4.20;98.20;;;;;;4101457;28;20055;-85
2020/12/14 01:19:41;;;;;;;0.65;0.65;;;4.20;97.80;;;;;;4100601;28;20047;-86
2020/12/14 01:21:42;;;;;;;1.27;0.55;;;4.20;97.50;;;;;;4100861;28;20063;-86
2020/12/14 01:23:43;;;;;;;1.02;0.77;;;4.20;97.90;;;;;;4100476;28;20614;-86
2020/12/14 01:25:44;;;;;;;0.77;0.77;;;4.20;98.10;;;;;;4119202;28;20058;-86
2020/12/14 01:27:46;;;;;;;0.63;0.47;;;4.20;97.90;;;;;;4101060;28;20146;-86
2020/12/14 01:29:47;;;;;;;0.77;0.77;;;4.20;97.50;;;;;;4085736;29;20134;-86
2020/12/14 01:31:48;;;;;;;0.80;0.80;;;4.20;97.60;;;;;;4100047;28;20419;-85
2020/12/14 01:33:50;;;;;;;1.17;1.05;;;4.20;98.00;;;;;;4101057;28;20059;-86
2020/12/14 01:35:52;;;;;;;0.65;0.57;;;4.10;98.00;;;;;;4115880;28;20055;-86
2020/12/14 01:37:53;;;;;;;0.70;0.70;;;4.10;98.50;;;;;;4102554;28;20074;-86
2020/12/14 01:39:54;;;;;;;6.30;2.05;;;4.10;98.20;;;;;;4100620;28;20051;-86
2020/12/14 01:41:56;;;;;;;1.13;0.40;;;4.10;98.10;;;;;;4100146;28;20047;-86
2020/12/14 01:43:58;;;;;;;2.50;1.10;;;4.10;98.40;;;;;;4100341;28;20047;-86
2020/12/14 01:45:59;;;;;;;2.10;1.80;;;4.10;97.70;;;;;;4116859;28;20058;-86
2020/12/14 01:48:03;;;;;;;0.20;0.20;;;4.10;97.80;;;;;;4115845;28;20051;-86
2020/12/14 01:50:05;;;;;;;3.58;0.90;;;4.10;98.30;;;;;;4100164;28;20138;-86
2020/12/14 01:52:08;;;;;;;0.55;0.50;;;4.10;98.20;;;;;;4101033;28;20528;-86
2020/12/14 01:54:44;;;;;;;0.82;0.82;;;4.10;97.90;;;;;;4118935;28;20522;-85
2020/12/14 01:56:46;;;;;;;1.40;1.15;;;4.10;98.50;;;;;;4113419;28;20046;-86
2020/12/14 01:58:47;;;;;;;1.55;0.85;;;4.10;98.10;;;;;;4118810;28;20051;-86
2020/12/14 02:00:49;;;;;;;0.75;0.75;;;4.20;97.80;;;;;;4100320;28;20055;-86
2020/12/14 02:02:51;;;;;;;2.00;1.80;;;4.10;98.10;;;;;;4102320;28;20061;-87
2020/12/14 02:04:53;;;;;;;2.78;1.67;;;4.20;97.70;;;;;;4100204;28;20145;-86
2020/12/14 02:06:54;;;;;;;1.60;0.85;;;4.10;98.50;;;;;;4100477;28;20426;-87
2020/12/14 02:08:55;;;;;;;0.63;0.47;;;4.20;98.20;;;;;;4101381;28;20059;-86
2020/12/14 02:10:56;;;;;;;0.63;0.63;;;4.10;98.70;;;;;;4102569;28;20066;-86
2020/12/14 02:12:58;;;;;;;2.90;0.85;;;4.10;98.40;;;;;;4116046;28;20050;-86
2020/12/14 02:14:59;;;;;;;0.93;0.93;;;4.20;98.40;;;;;;4083988;29;20058;-86
2020/12/14 02:17:01;;;;;;;0.30;0.30;;;4.10;98.40;;;;;;4118132;28;20208;-86
2020/12/14 02:19:02;;;;;;;0.80;0.80;;;4.10;98.80;;;;;;4100588;28;20105;-85
2020/12/14 02:21:04;;;;;;;0.60;0.47;;;4.10;99.10;;;;;;4084920;29;20054;-86
2020/12/14 02:23:05;;;;;;;0.60;0.60;;;4.10;98.50;;;;;;4100098;28;20055;-87
2020/12/14 02:25:06;;;;;;;4.93;1.30;;;4.10;98.30;;;;;;4115834;28;20059;-86
2020/12/14 02:27:08;;;;;;;1.38;0.95;;;4.10;98.10;;;;;;4084686;29;20058;-86
2020/12/14 02:29:09;;;;;;;0.65;0.65;;;4.10;98.00;;;;;;4099957;28;20047;-87
2020/12/14 02:31:10;;;;;;;0.47;0.47;;;4.10;98.40;;;;;;4099911;28;20058;-87
2020/12/14 02:33:12;;;;;;;1.33;0.90;;;4.10;97.60;;;;;;4115718;28;20588;-86
2020/12/14 02:35:13;;;;;;;0.30;0.30;;;4.10;97.70;;;;;;4099397;28;20047;-86
2020/12/14 02:37:25;;;;;;;1.60;1.50;;;4.10;98.00;;;;;;4084151;29;20048;-87
2020/12/14 02:39:27;;;;;;;2.67;1.05;;;4.10;98.50;;;;;;4098544;28;20106;-86
2020/12/14 02:41:28;;;;;;;1.63;1.48;;;4.10;98.40;;;;;;4102203;28;20048;-86
2020/12/14 02:43:29;;;;;;;1.25;1.13;;;4.00;98.50;;;;;;4084347;28;20052;-86
2020/12/14 02:45:31;;;;;;;2.75;1.33;;;4.00;98.20;;;;;;4115345;28;20050;-86
2020/12/14 02:47:32;;;;;;;1.08;0.80;;;4.10;97.80;;;;;;4102031;28;20143;-86
2020/12/14 02:49:34;;;;;;;0.80;0.77;;;4.10;97.70;;;;;;4100344;28;20063;-86
2020/12/14 02:51:36;;;;;;;2.88;1.77;;;4.10;98.30;;;;;;4100106;28;20138;-86
2020/12/14 02:53:37;;;;;;;1.25;1.15;;;4.10;98.30;;;;;;4105847;28;20047;-87
2020/12/14 02:55:40;;;;;;;3.13;1.13;;;4.10;98.00;;;;;;4116645;28;20502;-87
2020/12/14 02:57:41;;;;;;;2.33;0.73;;;4.10;97.40;;;;;;4100399;28;20051;-87
2020/12/14 02:59:42;;;;;;;1.45;1.08;;;4.20;97.40;;;;;;4098645;29;20071;-87
2020/12/14 03:01:43;;;;;;;0.75;0.60;;;4.20;97.50;;;;;;4085491;28;20135;-86
2020/12/14 03:03:45;;;;;;;0.57;0.55;;;4.10;98.40;;;;;;4079903;29;20444;-86
2020/12/14 03:05:47;;;;;;;1.05;0.95;;;4.10;98.70;;;;;;4101362;28;20492;-87
2020/12/14 03:07:49;;;;;;;0.93;0.70;;;4.10;98.40;;;;;;4101486;28;20054;-87
2020/12/14 03:09:51;;;;;;;0.73;0.52;;;4.00;98.50;;;;;;4099558;28;20059;-87
2020/12/14 03:11:52;;;;;;;0.88;0.80;;;4.00;98.60;;;;;;4098736;28;20065;-87
2020/12/14 03:13:54;;;;;;;1.67;1.48;;;4.00;98.90;;;;;;4098643;28;20554;-86
2020/12/14 03:15:55;;;;;;;1.55;1.45;;;4.00;98.30;;;;;;4115711;28;20070;-86
2020/12/14 03:17:57;;;;;;;0.95;0.95;;;4.00;98.20;;;;;;4085440;29;20142;-86
2020/12/14 03:19:58;;;;;;;1.30;0.88;;;4.10;97.80;;;;;;4116010;28;20047;-87
2020/12/14 03:21:59;;;;;;;0.88;0.85;;;4.10;98.00;;;;;;4099687;28;20542;-87
2020/12/14 03:24:01;;;;;;;1.83;0.85;;;4.00;98.30;;;;;;4117118;28;20094;-87
2020/12/14 03:26:02;;;;;;;1.00;0.60;;;4.00;98.60;;;;;;4114822;28;20057;-86
2020/12/14 03:28:03;;;;;;;1.73;1.05;;;4.00;98.60;;;;;;4099079;28;20494;-86
2020/12/14 03:30:04;;;;;;;0.90;0.70;;;3.90;98.70;;;;;;4086429;29;20468;-86
2020/12/14 03:32:06;;;;;;;0.73;0.73;;;3.90;98.90;;;;;;4117282;28;20054;-86
2020/12/14 03:34:07;;;;;;;1.40;1.25;;;3.90;98.60;;;;;;4098933;28;20059;-86
2020/12/14 03:36:09;;;;;;;0.93;0.77;;;3.90;98.70;;;;;;4099416;28;20047;-87
2020/12/14 03:38:10;;;;;;;1.52;1.08;;;3.90;98.80;;;;;;4114635;28;20171;-86
2020/12/14 03:40:11;;;;;;;2.03;1.42;;;3.90;99.20;;;;;;4098977;28;20061;-87
2020/12/14 03:42:13;;;;;;;1.17;0.55;;;3.90;98.50;;;;;;4114278;28;20170;-87
2020/12/14 03:44:14;;;;;;;0.93;0.82;;;4.00;98.70;;;;;;4098539;28;20055;-88
2020/12/14 03:46:27;;;;;;;0.20;0.20;;;3.90;98.80;;;;;;4099575;28;20061;-89
2020/12/14 03:48:28;;;;;;;0.45;0.45;;;3.90;98.90;;;;;;4083561;28;20055;-88
2020/12/14 03:50:30;;;;;;;1.55;0.60;;;3.90;99.00;;;;;;4117533;28;20053;-88
2020/12/14 03:52:31;;;;;;;0.68;0.43;;;3.90;99.00;;;;;;4098974;28;20062;-88
2020/12/14 03:54:32;;;;;;;1.33;1.23;;;3.90;99.00;;;;;;4102956;28;20054;-88
2020/12/14 03:56:33;;;;;;;0.88;0.88;;;3.90;98.90;;;;;;4121435;28;20445;-88
2020/12/14 03:58:35;;;;;;;2.33;1.75;;;3.90;98.90;;;;;;4088020;29;20557;-87
2020/12/14 04:00:36;;;;;;;7.55;1.52;;;4.00;98.60;;;;;;4104276;28;20495;-87
2020/12/14 04:02:37;;;;;;;1.77;1.63;;;3.90;99.00;;;;;;4088075;29;20527;-87
2020/12/14 04:04:39;;;;;;;0.57;0.55;;;3.90;98.70;;;;;;4087923;29;20531;-87
2020/12/14 04:06:40;;;;;;;0.75;0.75;;;3.90;98.80;;;;;;4120168;28;20058;-87
2020/12/14 04:08:41;;;;;;;2.17;0.75;;;4.00;98.30;;;;;;4087581;29;20536;-86
2020/12/14 04:10:43;;;;;;;2.15;1.42;;;4.00;98.60;;;;;;4104161;28;20054;-86
2020/12/14 04:12:46;;;;;;;0.43;0.30;;;4.00;98.50;;;;;;4084553;28;20146;-87
2020/12/14 04:14:47;;;;;;;1.25;0.52;;;4.00;98.50;;;;;;4111338;28;20077;-87
2020/12/14 04:16:52;;;;;;;1.02;0.70;;;4.00;98.00;;;;;;4105055;28;20078;-86
2020/12/14 04:18:54;;;;;;;;;;;4.10;98.00;;;;;;4104961;28;20541;-86
2020/12/14 04:20:56;;;;;;;0.50;0.50;;;4.10;98.00;;;;;;4119119;28;19929;-86
2020/12/14 04:22:57;;;;;;;0.65;0.57;;;4.10;98.40;;;;;;4103435;28;20139;-87
2020/12/14 04:24:58;;;;;;;1.45;0.50;;;4.10;98.90;;;;;;4104045;28;20059;-87
2020/12/14 04:27:00;;;;;;;0.43;0.40;;;4.10;98.90;;;;;;4103850;28;20047;-87
2020/12/14 04:29:01;;;;;;;0.77;0.77;;;4.10;98.80;;;;;;4105854;28;20074;-86
2020/12/14 04:31:03;;;;;;;1.17;0.98;;;4.10;98.60;;;;;;4104378;28;20062;-86
2020/12/14 04:33:06;;;;;;;1.33;1.13;;;4.20;98.50;;;;;;4103211;28;20095;-87
2020/12/14 04:35:07;;;;;;;0.90;0.55;;;4.30;98.60;;;;;;4106124;28;20047;-86
2020/12/14 04:37:08;;;;;;;1.17;1.00;;;4.30;98.30;;;;;;4104123;28;20063;-86
2020/12/14 04:39:10;;;;;;;0.77;0.77;;;4.40;98.00;;;;;;4103404;28;20507;-86
2020/12/14 04:41:13;;;;;;;0.63;0.30;;;4.40;98.40;;;;;;4105832;28;20051;-86
2020/12/14 04:43:14;;;;;;;0.35;0.35;;;4.40;98.10;;;;;;4119756;28;20054;-86
2020/12/14 04:45:15;;;;;;;0.20;0.20;;;4.50;98.30;;;;;;4103368;28;20076;-86
2020/12/14 04:47:21;;;;;;;0.45;0.45;;;4.50;97.80;;;;;;4104253;28;20047;-86
2020/12/14 04:49:22;;;;;;;2.42;0.63;;;4.50;98.00;;;;;;4104046;28;20047;-86
2020/12/14 04:51:24;;;;;;;1.50;0.60;;;4.50;98.10;;;;;;4121697;28;20129;-85
2020/12/14 04:53:25;;;;;;;0.63;0.63;;;4.50;98.20;;;;;;4089759;29;20047;-86
2020/12/14 04:55:26;;;;;;;7.05;2.15;;;4.40;98.20;;;;;;4103099;28;20063;-86
2020/12/14 04:57:28;;;;;;;0.32;0.30;;;4.50;98.00;;;;;;4103661;28;20515;-86
2020/12/14 04:59:29;;;;;;;0.50;0.40;;;4.50;97.80;;;;;;4121651;28;20046;-86
2020/12/14 05:01:30;;;;;;;0.90;0.65;;;4.50;98.00;;;;;;4103094;28;20419;-86
2020/12/14 05:03:31;;;;;;;0.47;0.25;;;4.40;98.10;;;;;;4105650;28;20492;-87
2020/12/14 05:05:33;;;;;;;0.52;0.20;;;4.50;97.70;;;;;;4100542;28;20115;-86
2020/12/14 05:07:44;;;;;;;0.70;0.70;;;4.50;97.60;;;;;;4102024;28;20491;-86
2020/12/14 05:09:45;;;;;;;0.68;0.68;;;4.60;97.50;;;;;;4117052;28;20093;-86
2020/12/14 05:11:47;;;;;;;0.85;0.50;;;4.60;97.70;;;;;;4102955;28;20049;-86
2020/12/14 05:13:48;;;;;;;0.63;0.60;;;4.60;97.40;;;;;;4118009;28;20118;-86
2020/12/14 05:15:50;;;;;;;2.30;0.45;;;4.60;97.20;;;;;;4116999;28;20078;-86
2020/12/14 05:18:07;;;;;;;0.40;0.40;;;4.60;97.70;;;;;;4103221;28;20062;-86
2020/12/14 05:20:14;;;;;;;0.52;0.30;;;4.60;97.80;;;;;;4100014;28;20055;-86
2020/12/14 05:22:19;;;;;;;0.50;0.50;;;4.60;97.70;;;;;;4101168;28;20051;-86
2020/12/14 05:24:20;;;;;;;0.37;0.33;;;4.60;97.80;;;;;;4105568;28;20059;-86
2020/12/14 05:26:30;;;;;;;1.05;0.95;;;4.60;97.70;;;;;;4117367;28;20047;-86
2020/12/14 05:28:31;;;;;;;1.13;0.45;;;4.60;97.70;;;;;;4100334;28;20059;-86
2020/12/14 05:30:36;;;;;;;0.50;0.50;;;4.60;97.60;;;;;;4102865;28;20058;-85
2020/12/14 05:32:37;;;;;;;2.00;1.65;;;4.60;97.80;;;;;;4100271;28;20067;-86
2020/12/14 05:34:40;;;;;;;0.60;0.35;;;4.50;98.10;;;;;;4100318;28;20078;-86
2020/12/14 05:36:42;;;;;;;1.23;0.50;;;4.50;98.10;;;;;;4100772;28;20055;-86
2020/12/14 05:38:43;;;;;;;1.75;0.73;;;4.50;97.90;;;;;;4099579;28;20141;-85
2020/12/14 05:40:47;;;;;;;0.98;0.20;;;4.50;98.10;;;;;;4084573;29;20054;-86
2020/12/14 05:42:48;;;;;;;0.93;0.50;;;4.40;98.50;;;;;;4112568;28;20058;-86
2020/12/14 05:44:50;;;;;;;0.40;0.30;;;4.40;98.20;;;;;;4118275;28;20473;-86
2020/12/14 05:46:51;;;;;;;0.93;0.50;;;4.40;98.30;;;;;;4087207;28;20142;-85
2020/12/14 05:48:53;;;;;;;0.60;0.60;;;4.40;98.40;;;;;;4116120;28;20494;-85
2020/12/14 05:51:01;;;;;;;0.70;0.70;;;4.40;98.40;;;;;;4100170;28;20146;-85
2020/12/14 05:53:05;;;;;;;1.27;1.00;;;4.40;98.20;;;;;;4116740;28;20150;-86
2020/12/14 05:55:07;;;;;;;0.50;0.32;;;4.30;98.40;;;;;;4116152;28;20058;-86
2020/12/14 05:57:10;;;;;;;1.23;0.60;;;4.30;98.50;;;;;;4100397;28;20039;-86
2020/12/14 05:59:11;;;;;;;0.98;0.55;;;4.30;98.30;;;;;;4099245;28;20054;-85
2020/12/14 06:01:12;;;;;;;0.25;0.25;;;4.30;98.60;;;;;;4115636;28;20434;-86
2020/12/14 06:03:14;;;;;;;1.55;0.73;;;4.30;98.50;;;;;;4099826;28;20502;-85
2020/12/14 06:05:15;;;;;;;0.40;0.40;;;4.30;98.70;;;;;;4099414;28;20047;-85
2020/12/14 06:07:17;;;;;;;1.23;0.52;;;4.30;98.60;;;;;;4099642;28;20062;-85
2020/12/14 06:09:21;;;;;;;0.70;0.70;;;4.30;98.50;;;;;;4107191;28;20094;-85
2020/12/14 06:11:26;;;;;;;1.80;1.65;;;4.30;98.30;;;;;;4098633;28;20062;-85
2020/12/14 06:13:29;;;;;;;0.43;0.40;;;4.30;98.00;;;;;;4115330;28;20046;-86
2020/12/14 06:15:31;;;;;;;0.40;0.30;;;4.30;98.20;;;;;;4084091;28;20052;-85
2020/12/14 06:17:33;;;;;;;0.45;0.45;;;4.30;98.00;;;;;;4098763;28;20051;-85
2020/12/14 06:19:34;;;;;;;5.05;1.58;;;4.30;98.60;;;;;;4099824;28;20530;-85
2020/12/14 06:21:44;;;;;;;0.77;0.77;;;4.30;98.60;;;;;;4099463;28;20077;-86
2020/12/14 06:23:46;;;;;;;1.05;0.93;;;4.30;98.60;;;;;;4085584;29;20103;-86
2020/12/14 06:25:47;;;;;;;0.38;0.32;;;4.30;98.50;;;;;;4099538;28;20118;-85
2020/12/14 06:27:49;;;;;;;0.28;0.28;;;4.30;98.60;;;;;;4099809;28;20047;-85
2020/12/14 06:29:50;;;;;;;0.73;0.63;;;4.30;98.70;;;;;;4101516;28;20047;-85
2020/12/14 06:31:51;;;;;;;1.13;0.85;;;4.30;98.60;;;;;;4116673;28;20056;-85
2020/12/14 06:33:53;;;;;;;5.47;1.77;;;4.30;98.70;;;;;;4083545;28;20059;-85
2020/12/14 06:35:54;;;;;;;0.50;0.50;;;4.30;98.80;;;;;;4130300;28;20493;-85
2020/12/14 06:37:56;;;;;;;0.65;0.50;;;4.30;98.70;;;;;;4099412;28;20844;-85
2020/12/14 06:39:58;;;;;;;0.25;0.25;;;4.30;98.70;;;;;;4081554;28;20048;-85
2020/12/14 06:42:23;;;;;;;1.33;0.73;;;4.30;98.70;;;;;;4098872;28;20069;-85
2020/12/14 06:44:24;;;;;;;0.35;0.30;;;4.30;98.90;;;;;;4107604;28;20051;-86
2020/12/14 06:46:26;;;;;;;1.42;1.08;;;4.40;98.50;;;;;;4083698;28;20051;-85
2020/12/14 06:48:48;;;;;;;0.40;0.40;;;4.40;98.50;;;;;;4106433;28;20485;-85
2020/12/14 06:50:55;;;;;;;0.93;0.85;;;4.40;98.60;;;;;;4102733;28;20055;-84
2020/12/14 06:52:58;;;;;;;1.55;1.23;;;4.40;98.90;;;;;;4106719;28;20126;-85
2020/12/14 06:55:00;;;;;;;0.30;0.30;;;4.40;98.70;;;;;;4114975;28;20061;-85
2020/12/14 06:57:01;;;;;;;0.90;0.90;;;4.40;98.60;;;;;;4114021;28;20051;-85
2020/12/14 06:59:04;;;;;;;0.50;0.50;;;4.40;98.70;;;;;;4118977;28;20586;-85
2020/12/14 07:01:39;;;;;;;0.93;0.65;;;4.40;98.50;;;;;;4099000;28;20062;-85
2020/12/14 07:03:41;;;;;;;0.40;0.40;;;4.50;98.50;;;;;;4109005;28;20075;-84
2020/12/14 07:05:44;;;;;;;0.57;0.57;;;4.40;98.70;;;;;;4099298;29;20085;-88
2020/12/14 07:07:55;;;;;;;0.77;0.77;;;4.50;98.60;;;;;;4132594;28;20426;-91
2020/12/14 07:10:13;;;;;;;0.50;0.45;;;4.40;98.50;;;;;;4113239;28;20514;-89
2020/12/14 07:12:23;;;;;;;0.80;0.80;;;4.50;98.60;;;;;;4132345;28;20427;-90
2020/12/14 07:14:30;;;;;;;0.45;0.40;;;4.50;98.40;;;;;;4095788;28;20047;-90
2020/12/14 07:16:31;;;;;;;1.95;0.82;;;4.50;98.50;;;;;;4110766;28;20043;-90
2020/12/14 07:18:33;;;;;;;0.30;0.30;;;4.50;98.50;;;;;;4132804;28;20138;-91
2020/12/14 07:20:36;;;;;;;0.45;0.30;;;4.50;98.50;;;;;;4122716;28;20051;-91
2020/12/14 07:22:50;;;;;;;1.17;0.35;;;4.50;98.50;;;;;;4099606;28;20047;-90
2020/12/14 07:25:00;;;;;;;1.25;0.80;;;4.40;98.50;;;;;;4129402;28;20518;-91
2020/12/14 07:27:01;;;;;;;0.15;0.10;;;4.40;98.50;;;;;;4133864;28;20081;-91
2020/12/14 07:29:07;;;;;;;1.77;1.48;;;4.50;98.40;;;;;;4130378;28;20522;-91
2020/12/14 07:31:13;;;;;;;0.50;0.32;;;4.50;98.60;;;;;;4101079;28;20067;-91
2020/12/14 07:33:14;;;;;;;0.63;0.55;;;4.40;98.70;;;;;;4115513;28;20046;-91
2020/12/14 07:35:16;;;;;;;0.60;0.60;;;4.50;98.60;;;;;;4131345;28;20054;-87
2020/12/14 07:37:21;;;;;;;2.60;1.77;;;4.50;98.50;;;;;;4118765;28;20057;-90
2020/12/14 07:39:22;;;;;;;0.20;0.20;;;4.50;98.60;;;;;;4098777;28;20070;-91
2020/12/14 07:41:24;;;;;;;1.27;0.40;;;4.50;98.80;;;;;;4130431;28;20054;-89
2020/12/14 07:43:25;;;;;;;0.35;0.35;;;4.50;98.40;;;;;;4131033;28;20050;-89
2020/12/14 07:45:27;;;;;;;5.00;1.13;;;4.50;98.40;;;;;;4132250;28;20125;-90
2020/12/14 07:47:28;;;;;;;0.80;0.68;;;4.50;98.60;;;;;;4131688;28;20057;-92
2020/12/14 07:49:29;;;;;;;1.75;0.40;;;4.50;98.90;;;;;;4133285;28;20077;-92
2020/12/14 07:51:31;;;;;;;2.92;1.95;;;4.50;98.60;;;;;;4131394;28;20050;-90
2020/12/14 07:53:32;;;;;;;1.33;1.08;;;4.60;98.50;;;;;;4124276;28;20134;-90
2020/12/14 07:55:36;;;;;;;2.03;0.90;;;4.60;98.80;;;;;;4130773;28;20058;-88
2020/12/14 07:57:39;;;;;;;1.85;0.50;;;4.60;98.90;;;;;;4129423;28;20449;-89
2020/12/14 07:59:40;;;;;;;2.88;1.42;;;4.60;98.70;;;;;;4117872;28;20047;-89
2020/12/14 08:01:41;;;;;;;1.58;1.38;;;4.60;98.90;;;;;;4136881;28;20053;-90
2020/12/14 08:03:44;;;;;;;1.77;0.68;;;4.60;98.70;;;;;;4140231;28;20050;-89
2020/12/14 08:05:45;;;;;;;2.53;1.13;;;4.70;98.50;;;;;;4108644;28;20043;-89
2020/12/14 08:07:52;;;;;;;0.13;0.13;;;4.70;98.40;;;;;;4125441;28;20046;-89
2020/12/14 08:09:53;;;;;;;1.75;0.95;;;4.80;98.30;;;;;;4132353;28;20055;-90
2020/12/14 08:11:54;;;;;;;0.95;0.45;;;4.90;98.20;;;;;;4102914;28;20502;-90
2020/12/14 08:13:56;;;;;;;0.77;0.77;;;4.90;98.00;;;;;;4131612;28;20577;-90
2020/12/14 08:16:00;;;;;;;1.67;0.68;;;5.00;97.90;;;;;;4116395;28;20110;-91
2020/12/14 08:18:04;;;;;;;1.30;0.70;;;5.10;97.40;;;;;;4085528;29;20055;-90
2020/12/14 08:20:06;;;;;;;0.55;0.50;;;5.20;97.40;;;;;;4117145;28;20125;-86
2020/12/14 08:22:09;;;;;;;0.95;0.80;;;5.20;97.10;;;;;;4114766;28;20474;-89
2020/12/14 08:24:10;;;;;;;1.42;0.90;;;5.30;97.00;;;;;;4130885;28;20071;-89
2020/12/14 08:26:12;;;;;;;0.35;0.32;;;5.30;96.90;;;;;;4129654;28;20042;-89
2020/12/14 08:53:22;;;;;;;4.32;0.85;;;5.60;95.80;;;;;;4228694;27;943367;-90
2020/12/14 08:55:34;;;;;;;0.63;0.45;;;5.60;95.80;;;;;;4230040;28;20048;-90
2020/12/14 08:57:35;;;;;;;0.30;0.30;;;5.60;96.10;;;;;;4212528;28;20424;-93
2020/12/14 08:59:36;;;;;;;0.77;0.52;;;5.60;95.90;;;;;;4211844;28;20048;-87
2020/12/14 09:01:37;;;;;;;0.55;0.32;;;5.60;95.70;;;;;;4242303;28;20454;-90
2020/12/14 09:03:46;;;;;;;0.30;0.30;;;5.60;95.90;;;;;;4230521;28;20043;-92
2020/12/14 09:05:48;;;;;;;1.75;0.88;;;5.60;95.90;;;;;;4233240;28;20071;-92
2020/12/14 09:07:49;;;;;;;0.80;0.80;;;5.70;95.70;;;;;;4229296;28;20051;-92
2020/12/14 09:09:51;;;;;;;1.10;0.60;;;5.70;95.70;;;;;;4233709;28;20046;-94
2020/12/14 09:11:52;;;;;;;2.40;1.50;;;5.80;95.40;;;;;;4219655;28;20528;-92
2020/12/14 09:13:57;;;;;;;0.32;0.30;;;5.90;95.60;;;;;;4242727;28;20050;-91
2020/12/14 09:16:01;;;;;;;3.83;0.47;;;5.90;95.60;;;;;;4225470;28;20060;-90
2020/12/14 09:18:05;;;;;;;1.60;0.95;;;6.00;95.30;;;;;;4239210;28;20051;-92
2020/12/14 09:20:08;;;;;;;1.13;0.70;;;6.00;95.10;;;;;;4224546;28;20056;-92
2020/12/14 09:22:10;;;;;;;0.32;0.20;;;6.10;95.40;;;;;;4194491;28;20053;-92
2020/12/14 09:24:12;;;;;;;0.73;0.68;;;6.10;95.10;;;;;;4238111;28;20062;-90
2020/12/14 09:26:13;;;;;;;1.83;0.50;;;6.20;95.40;;;;;;4213038;28;20051;-92
2020/12/14 09:28:15;;;;;;;1.10;0.55;;;6.30;94.80;;;;;;4218987;28;20044;-92
2020/12/14 09:30:16;;;;;;;2.92;0.57;;;6.30;94.60;;;;;;4223968;28;20086;-89
2020/12/14 09:32:17;;;;;;;2.13;1.52;;;6.30;94.60;;;;;;4233657;28;20046;-91
2020/12/14 09:34:19;;;;;;;0.90;0.88;;;6.40;94.60;;;;;;4212230;28;20040;-91
2020/12/14 09:36:20;;;;;;;0.75;0.73;;;6.40;94.40;;;;;;4201898;28;20052;-94
2020/12/14 09:38:21;;;;;;;0.90;0.50;;;6.50;94.60;;;;;;4217379;28;20050;-92
2020/12/14 09:40:23;;;;;;;0.28;0.20;;;6.50;94.50;;;;;;4229220;28;20054;-91
2020/12/14 09:42:24;;;;;;;1.05;0.63;;;6.60;94.10;;;;;;4218197;28;20044;-93
2020/12/14 09:44:26;;;;;;;6.22;0.50;;;6.60;93.60;;;;;;4218379;28;20044;-91
2020/12/14 09:46:27;;;;;;;4.43;1.73;;;6.70;93.60;;;;;;4226968;28;20051;-92
2020/12/14 09:48:29;;;;;;;1.02;0.40;;;6.70;93.80;;;;;;4233832;28;20055;-90
2020/12/14 09:50:30;;;;;;;0.57;0.43;;;6.80;93.80;;;;;;4233006;28;20040;-92
2020/12/14 09:52:31;;;;;;;3.10;1.10;;;6.80;93.20;;;;;;4226945;28;20055;-92
2020/12/14 09:54:33;;;;;;;3.72;0.90;;;6.90;93.40;;;;;;4210758;28;20187;-92
2020/12/14 09:56:35;;;;;;;0.80;0.80;;;6.90;93.60;;;;;;4226573;28;20048;-92
2020/12/14 09:58:37;;;;;;;0.40;0.30;;;7.00;93.60;;;;;;4244830;28;20047;-90
2020/12/14 10:00:40;;;;;;;0.47;0.30;;;7.10;93.10;;;;;;4244883;28;20047;-92
2020/12/14 10:02:42;;;;;;;2.47;2.28;;;7.10;93.30;;;;;;4241549;28;20449;-92
2020/12/14 10:04:44;;;;;;;2.85;2.65;;;7.20;93.20;;;;;;4233612;28;20126;-91
2020/12/14 10:06:46;;;;;;;1.50;1.00;;;7.30;92.80;;;;;;4216279;28;20044;-92
2020/12/14 10:08:48;;;;;;;0.90;0.90;;;7.30;92.50;;;;;;4194635;28;20459;-93
2020/12/14 10:10:51;;;;;;;1.23;1.05;;;7.30;92.80;;;;;;4186561;28;20124;-92
2020/12/14 10:12:59;;;;;;;1.02;0.80;;;7.40;93.20;;;;;;4216494;28;20430;-92
2020/12/14 10:15:00;;;;;;;0.68;0.68;;;7.50;92.80;;;;;;4232417;28;20038;-91
2020/12/14 10:17:02;;;;;;;2.22;0.57;;;7.50;92.60;;;;;;4233196;28;20045;-92
2020/12/14 10:19:05;;;;;;;1.05;0.70;;;7.60;92.80;;;;;;4233935;28;20507;-92
2020/12/14 10:21:09;;;;;;;0.57;0.52;;;7.70;92.30;;;;;;4215048;28;20581;-92
2020/12/14 10:23:11;;;;;;;1.55;0.95;;;7.70;92.40;;;;;;4232748;28;20050;-93
2020/12/14 10:25:12;;;;;;;1.40;0.60;;;7.70;92.30;;;;;;4215878;28;20087;-92
2020/12/14 10:27:14;;;;;;;0.60;0.57;;;7.80;92.40;;;;;;4214693;28;20048;-92
2020/12/14 10:29:17;;;;;;;1.20;1.13;;;7.90;91.90;;;;;;4232833;28;20846;-92
2020/12/14 10:31:18;;;;;;;0.95;0.88;;;8.00;92.10;;;;;;4200098;28;20461;-92
2020/12/14 10:33:20;;;;;;;0.88;0.57;;;8.10;91.80;;;;;;4200900;28;20538;-92
2020/12/14 10:35:21;;;;;;;0.90;0.65;;;8.10;91.60;;;;;;4218029;28;20130;-93
2020/12/14 10:37:23;;;;;;;1.25;0.77;;;8.10;91.60;;;;;;4199311;28;20045;-91
2020/12/14 10:39:24;;;;;;;1.63;1.27;;;8.20;91.10;;;;;;4234288;28;20044;-93
2020/12/14 10:41:25;;;;;;;1.02;0.70;;;8.20;91.30;;;;;;4181484;28;20061;-92
2020/12/14 10:43:26;;;;;;;3.05;1.80;;;8.30;91.40;;;;;;4232910;28;20067;-92
2020/12/14 10:45:28;;;;;;;1.13;0.90;;;8.40;91.60;;;;;;4233670;28;20047;-92
2020/12/14 10:47:29;;;;;;;2.38;1.17;;;8.40;90.10;;;;;;4214957;28;20135;-92
2020/12/14 10:49:31;;;;;;;2.83;1.13;;;8.40;91.00;;;;;;4214973;28;20130;-90
2020/12/14 10:51:32;;;;;;;0.85;0.80;;;8.50;91.10;;;;;;4232724;28;20063;-87
2020/12/14 10:53:33;;;;;;;1.13;0.52;;;8.50;90.70;;;;;;4233077;28;20456;-94
2020/12/14 10:55:34;;;;;;;1.00;0.40;;;8.60;91.00;;;;;;4217212;28;20046;-94
2020/12/14 10:57:36;;;;;;;1.00;0.85;;;8.70;90.40;;;;;;4230662;28;20486;-92
2020/12/14 10:59:37;;;;;;;1.13;0.95;;;8.70;90.80;;;;;;4209194;28;20045;-92
2020/12/14 11:01:39;;;;;;;0.52;0.38;;;8.80;90.40;;;;;;4227612;28;20052;-96
2020/12/14 11:03:40;;;;;;;2.13;0.88;;;8.90;90.30;;;;;;4248308;28;20051;-96
2020/12/14 11:05:41;;;;;;;0.88;0.68;;;8.90;89.60;;;;;;4235129;28;20044;-88
2020/12/14 11:07:43;;;;;;;2.38;0.85;;;9.00;90.30;;;;;;4239946;28;20052;-89
2020/12/14 11:09:45;;;;;;;3.05;0.80;;;9.10;90.30;;;;;;4227578;28;20052;-96
2020/12/14 11:11:46;;;;;;;1.45;1.35;;;9.20;89.60;;;;;;4224446;28;20062;-86